sensor_id;sensor_type;location;lat;lon;timestamp;temperature;humidity
9383;DHT22;4731;49.708;10.816;2023-04-15T00:02:13;4.50;99.90
9383;DHT22;4731;49.708;10.816;2023-04-15T00:04:40;4.50;99.90
9383;DHT22;4731;49.708;10.816;2023-04-15T00:07:08;4.50;99.90
9383;DHT22;4731;49.708;10.816;2023-04-15T00:09:35;4.50;99.90
9383;DHT22;4731;49.708;10.816;2023-04-15T00:12:02;4.50;99.90
9383;DHT22;4731;49.708;10.816;2023-04-15T00:14:29;4.50;99.90
9383;DHT22;4731;49.708;10.816;2023-04-15T00:16:56;4.50;99.90
9383;DHT22;4731;49.708;10.816;2023-04-15T00:19:22;4.50;99.90
9383;DHT22;4731;49.708;10.816;2023-04-15T00:21:49;4.50;99.90
9383;DHT22;4731;49.708;10.816;2023-04-15T00:24:17;4.50;99.90
9383;DHT22;4731;49.708;10.816;2023-04-15T00:26:44;4.50;99.90
9383;DHT22;4731;49.708;10.816;2023-04-15T00:29:11;4.50;99.90
9383;DHT22;4731;49.708;10.816;2023-04-15T00:31:38;4.60;99.90
9383;DHT22;4731;49.708;10.816;2023-04-15T00:34:05;4.50;99.90
9383;DHT22;4731;49.708;10.816;2023-04-15T00:36:32;4.50;99.90
9383;DHT22;4731;49.708;10.816;2023-04-15T00:38:59;4.60;99.90
9383;DHT22;4731;49.708;10.816;2023-04-15T00:41:28;4.60;99.90
9383;DHT22;4731;49.708;10.816;2023-04-15T00:43:56;4.60;99.90
9383;DHT22;4731;49.708;10.816;2023-04-15T00:46:23;4.60;99.90
9383;DHT22;4731;49.708;10.816;2023-04-15T00:48:53;4.60;99.90
9383;DHT22;4731;49.708;10.816;2023-04-15T00:51:20;4.60;99.90
9383;DHT22;4731;49.708;10.816;2023-04-15T00:53:47;4.60;99.90
9383;DHT22;4731;49.708;10.816;2023-04-15T00:56:14;4.60;99.90
9383;DHT22;4731;49.708;10.816;2023-04-15T00:58:42;4.60;99.90
9383;DHT22;4731;49.708;10.816;2023-04-15T01:01:09;4.60;99.90
9383;DHT22;4731;49.708;10.816;2023-04-15T01:03:36;4.60;99.90
9383;DHT22;4731;49.708;10.816;2023-04-15T01:06:03;4.70;99.90
9383;DHT22;4731;49.708;10.816;2023-04-15T01:08:29;4.70;99.90
9383;DHT22;4731;49.708;10.816;2023-04-15T01:10:58;4.80;99.90
9383;DHT22;4731;49.708;10.816;2023-04-15T01:13:28;4.80;99.90
9383;DHT22;4731;49.708;10.816;2023-04-15T01:15:56;4.80;99.90
9383;DHT22;4731;49.708;10.816;2023-04-15T01:18:23;4.80;99.90
9383;DHT22;4731;49.708;10.816;2023-04-15T01:20:51;4.70;99.90
9383;DHT22;4731;49.708;10.816;2023-04-15T01:23:17;4.70;99.90
9383;DHT22;4731;49.708;10.816;2023-04-15T01:25:46;4.70;99.90
9383;DHT22;4731;49.708;10.816;2023-04-15T01:28:13;4.70;99.90
9383;DHT22;4731;49.708;10.816;2023-04-15T01:30:40;4.80;99.90
9383;DHT22;4731;49.708;10.816;2023-04-15T01:33:07;4.80;99.90
9383;DHT22;4731;49.708;10.816;2023-04-15T01:35:34;4.80;99.90
9383;DHT22;4731;49.708;10.816;2023-04-15T01:38:04;4.70;99.90
9383;DHT22;4731;49.708;10.816;2023-04-15T01:40:31;4.80;99.90
9383;DHT22;4731;49.708;10.816;2023-04-15T01:43:00;4.70;99.90
9383;DHT22;4731;49.708;10.816;2023-04-15T01:45:26;4.70;99.90
9383;DHT22;4731;49.708;10.816;2023-04-15T01:47:53;5.00;99.90
9383;DHT22;4731;49.708;10.816;2023-04-15T01:50:20;4.80;99.90
9383;DHT22;4731;49.708;10.816;2023-04-15T01:52:47;4.80;99.90
9383;DHT22;4731;49.708;10.816;2023-04-15T01:55:14;4.80;99.90
9383;DHT22;4731;49.708;10.816;2023-04-15T01:57:41;4.80;99.90
9383;DHT22;4731;49.708;10.816;2023-04-15T02:00:09;4.90;99.90
9383;DHT22;4731;49.708;10.816;2023-04-15T02:02:37;4.90;99.90
9383;DHT22;4731;49.708;10.816;2023-04-15T02:05:04;5.00;99.90
9383;DHT22;4731;49.708;10.816;2023-04-15T02:07:31;5.00;99.90
9383;DHT22;4731;49.708;10.816;2023-04-15T02:09:57;5.00;99.90
9383;DHT22;4731;49.708;10.816;2023-04-15T02:12:25;5.00;99.90
9383;DHT22;4731;49.708;10.816;2023-04-15T02:14:51;4.80;99.90
9383;DHT22;4731;49.708;10.816;2023-04-15T02:17:20;4.90;99.90
9383;DHT22;4731;49.708;10.816;2023-04-15T02:19:46;4.90;99.90
9383;DHT22;4731;49.708;10.816;2023-04-15T02:22:13;4.90;99.90
9383;DHT22;4731;49.708;10.816;2023-04-15T02:24:43;4.90;99.90
9383;DHT22;4731;49.708;10.816;2023-04-15T02:27:10;4.90;99.90
9383;DHT22;4731;49.708;10.816;2023-04-15T02:29:40;4.90;99.90
9383;DHT22;4731;49.708;10.816;2023-04-15T02:32:07;4.80;99.90
9383;DHT22;4731;49.708;10.816;2023-04-15T02:34:35;4.90;99.90
9383;DHT22;4731;49.708;10.816;2023-04-15T02:37:03;4.90;99.90
9383;DHT22;4731;49.708;10.816;2023-04-15T02:39:30;4.90;99.90
9383;DHT22;4731;49.708;10.816;2023-04-15T02:41:57;4.90;99.90
9383;DHT22;4731;49.708;10.816;2023-04-15T02:44:25;4.90;99.90
9383;DHT22;4731;49.708;10.816;2023-04-15T02:46:51;4.90;99.90
9383;DHT22;4731;49.708;10.816;2023-04-15T02:49:19;4.90;99.90
9383;DHT22;4731;49.708;10.816;2023-04-15T02:51:47;4.90;99.90
9383;DHT22;4731;49.708;10.816;2023-04-15T02:54:14;4.90;99.90
9383;DHT22;4731;49.708;10.816;2023-04-15T02:56:41;4.90;99.90
9383;DHT22;4731;49.708;10.816;2023-04-15T02:59:07;4.90;99.90
9383;DHT22;4731;49.708;10.816;2023-04-15T03:01:34;4.90;99.90
9383;DHT22;4731;49.708;10.816;2023-04-15T03:04:01;4.90;99.90
9383;DHT22;4731;49.708;10.816;2023-04-15T03:06:28;4.90;99.90
9383;DHT22;4731;49.708;10.816;2023-04-15T03:08:56;4.90;99.90
9383;DHT22;4731;49.708;10.816;2023-04-15T03:11:24;4.90;99.90
9383;DHT22;4731;49.708;10.816;2023-04-15T03:13:51;4.90;99.90
9383;DHT22;4731;49.708;10.816;2023-04-15T03:16:18;4.90;99.90
9383;DHT22;4731;49.708;10.816;2023-04-15T03:18:45;4.90;99.90
9383;DHT22;4731;49.708;10.816;2023-04-15T03:21:12;4.90;99.90
9383;DHT22;4731;49.708;10.816;2023-04-15T03:23:38;4.90;99.90
9383;DHT22;4731;49.708;10.816;2023-04-15T03:26:07;4.90;99.90
9383;DHT22;4731;49.708;10.816;2023-04-15T03:28:33;4.80;99.90
9383;DHT22;4731;49.708;10.816;2023-04-15T03:31:00;4.90;99.90
9383;DHT22;4731;49.708;10.816;2023-04-15T03:33:27;4.80;99.90
9383;DHT22;4731;49.708;10.816;2023-04-15T03:35:54;4.80;99.90
9383;DHT22;4731;49.708;10.816;2023-04-15T03:38:21;4.80;99.90
9383;DHT22;4731;49.708;10.816;2023-04-15T03:40:47;4.80;99.90
9383;DHT22;4731;49.708;10.816;2023-04-15T03:43:15;4.80;99.90
9383;DHT22;4731;49.708;10.816;2023-04-15T03:45:42;4.90;99.90
9383;DHT22;4731;49.708;10.816;2023-04-15T03:48:09;4.90;99.90
9383;DHT22;4731;49.708;10.816;2023-04-15T03:50:36;4.90;99.90
9383;DHT22;4731;49.708;10.816;2023-04-15T03:53:02;5.00;99.90
9383;DHT22;4731;49.708;10.816;2023-04-15T03:55:29;5.00;99.90
9383;DHT22;4731;49.708;10.816;2023-04-15T03:57:56;5.80;99.90
9383;DHT22;4731;49.708;10.816;2023-04-15T04:00:24;5.10;99.90
9383;DHT22;4731;49.708;10.816;2023-04-15T04:02:50;5.10;99.90
9383;DHT22;4731;49.708;10.816;2023-04-15T04:05:17;5.10;99.90
9383;DHT22;4731;49.708;10.816;2023-04-15T04:07:44;5.10;99.90
9383;DHT22;4731;49.708;10.816;2023-04-15T04:10:10;5.10;99.90
9383;DHT22;4731;49.708;10.816;2023-04-15T04:12:37;5.10;99.90
9383;DHT22;4731;49.708;10.816;2023-04-15T04:15:04;5.10;99.90
9383;DHT22;4731;49.708;10.816;2023-04-15T04:17:33;5.00;99.90
9383;DHT22;4731;49.708;10.816;2023-04-15T04:20:00;4.90;99.90
9383;DHT22;4731;49.708;10.816;2023-04-15T04:22:27;4.90;99.90
9383;DHT22;4731;49.708;10.816;2023-04-15T04:24:54;4.90;99.90
9383;DHT22;4731;49.708;10.816;2023-04-15T04:27:21;4.90;99.90
9383;DHT22;4731;49.708;10.816;2023-04-15T04:29:47;4.90;99.90
9383;DHT22;4731;49.708;10.816;2023-04-15T04:32:16;4.90;99.90
9383;DHT22;4731;49.708;10.816;2023-04-15T04:34:55;4.80;99.90
9383;DHT22;4731;49.708;10.816;2023-04-15T04:37:31;4.80;99.90
9383;DHT22;4731;49.708;10.816;2023-04-15T04:40:09;4.80;99.90
9383;DHT22;4731;49.708;10.816;2023-04-15T04:42:41;4.80;99.90
9383;DHT22;4731;49.708;10.816;2023-04-15T04:45:22;4.90;99.90
9383;DHT22;4731;49.708;10.816;2023-04-15T04:47:54;5.00;99.90
9383;DHT22;4731;49.708;10.816;2023-04-15T04:50:24;5.00;99.90
9383;DHT22;4731;49.708;10.816;2023-04-15T04:52:56;5.10;99.90
9383;DHT22;4731;49.708;10.816;2023-04-15T04:55:46;5.10;99.90
9383;DHT22;4731;49.708;10.816;2023-04-15T04:58:30;5.10;99.90
9383;DHT22;4731;49.708;10.816;2023-04-15T05:00:58;5.20;99.90
9383;DHT22;4731;49.708;10.816;2023-04-15T05:03:34;5.30;99.90
9383;DHT22;4731;49.708;10.816;2023-04-15T05:06:10;5.20;99.90
9383;DHT22;4731;49.708;10.816;2023-04-15T05:08:55;5.20;99.90
9383;DHT22;4731;49.708;10.816;2023-04-15T05:11:27;5.30;99.90
9383;DHT22;4731;49.708;10.816;2023-04-15T05:14:07;5.40;99.90
9383;DHT22;4731;49.708;10.816;2023-04-15T05:16:41;5.40;99.90
9383;DHT22;4731;49.708;10.816;2023-04-15T05:19:22;5.40;99.90
9383;DHT22;4731;49.708;10.816;2023-04-15T05:22:01;5.40;99.90
9383;DHT22;4731;49.708;10.816;2023-04-15T05:24:37;5.40;99.90
9383;DHT22;4731;49.708;10.816;2023-04-15T05:27:12;5.40;99.90
9383;DHT22;4731;49.708;10.816;2023-04-15T05:29:40;5.50;99.90
9383;DHT22;4731;49.708;10.816;2023-04-15T05:32:07;5.60;99.90
9383;DHT22;4731;49.708;10.816;2023-04-15T05:34:35;5.60;99.90
9383;DHT22;4731;49.708;10.816;2023-04-15T05:37:04;5.70;99.90
9383;DHT22;4731;49.708;10.816;2023-04-15T05:39:34;5.70;99.90
9383;DHT22;4731;49.708;10.816;2023-04-15T05:42:04;5.70;99.90
9383;DHT22;4731;49.708;10.816;2023-04-15T05:44:33;5.80;99.90
9383;DHT22;4731;49.708;10.816;2023-04-15T05:47:14;5.80;99.90
9383;DHT22;4731;49.708;10.816;2023-04-15T05:49:45;5.90;99.90
9383;DHT22;4731;49.708;10.816;2023-04-15T05:52:16;6.00;99.90
9383;DHT22;4731;49.708;10.816;2023-04-15T05:54:51;6.10;99.90
9383;DHT22;4731;49.708;10.816;2023-04-15T05:57:33;6.10;99.90
9383;DHT22;4731;49.708;10.816;2023-04-15T06:00:15;6.20;99.90
9383;DHT22;4731;49.708;10.816;2023-04-15T06:02:45;6.30;99.90
9383;DHT22;4731;49.708;10.816;2023-04-15T06:05:13;6.40;99.90
9383;DHT22;4731;49.708;10.816;2023-04-15T06:07:52;6.50;99.90
9383;DHT22;4731;49.708;10.816;2023-04-15T06:10:20;6.50;99.90
9383;DHT22;4731;49.708;10.816;2023-04-15T06:12:54;6.60;99.90
9383;DHT22;4731;49.708;10.816;2023-04-15T06:15:23;6.60;99.90
9383;DHT22;4731;49.708;10.816;2023-04-15T06:17:52;6.60;99.90
9383;DHT22;4731;49.708;10.816;2023-04-15T06:20:22;6.60;99.90
9383;DHT22;4731;49.708;10.816;2023-04-15T06:22:51;6.70;99.90
9383;DHT22;4731;49.708;10.816;2023-04-15T06:25:23;6.80;99.90
9383;DHT22;4731;49.708;10.816;2023-04-15T06:27:51;6.90;99.90
9383;DHT22;4731;49.708;10.816;2023-04-15T06:30:22;6.90;99.90
9383;DHT22;4731;49.708;10.816;2023-04-15T06:33:01;7.00;99.90
9383;DHT22;4731;49.708;10.816;2023-04-15T06:35:32;7.10;99.90
9383;DHT22;4731;49.708;10.816;2023-04-15T06:38:01;7.30;99.90
9383;DHT22;4731;49.708;10.816;2023-04-15T06:40:39;7.20;99.90
9383;DHT22;4731;49.708;10.816;2023-04-15T06:43:07;7.30;99.90
9383;DHT22;4731;49.708;10.816;2023-04-15T06:45:38;7.40;99.90
9383;DHT22;4731;49.708;10.816;2023-04-15T06:48:08;7.50;99.90
9383;DHT22;4731;49.708;10.816;2023-04-15T06:50:36;7.50;99.90
9383;DHT22;4731;49.708;10.816;2023-04-15T06:53:05;7.60;99.90
9383;DHT22;4731;49.708;10.816;2023-04-15T06:55:33;7.70;99.90
9383;DHT22;4731;49.708;10.816;2023-04-15T06:58:03;7.80;99.90
9383;DHT22;4731;49.708;10.816;2023-04-15T07:00:31;7.80;99.90
9383;DHT22;4731;49.708;10.816;2023-04-15T07:02:59;8.00;99.90
9383;DHT22;4731;49.708;10.816;2023-04-15T07:05:33;8.00;99.90
9383;DHT22;4731;49.708;10.816;2023-04-15T07:08:12;8.10;99.90
9383;DHT22;4731;49.708;10.816;2023-04-15T07:10:39;8.10;99.90
9383;DHT22;4731;49.708;10.816;2023-04-15T07:13:09;8.20;99.90
9383;DHT22;4731;49.708;10.816;2023-04-15T07:15:37;8.20;99.90
9383;DHT22;4731;49.708;10.816;2023-04-15T07:18:09;8.20;99.90
9383;DHT22;4731;49.708;10.816;2023-04-15T07:20:38;8.30;99.90
9383;DHT22;4731;49.708;10.816;2023-04-15T07:23:08;8.30;99.90
9383;DHT22;4731;49.708;10.816;2023-04-15T07:25:35;8.40;99.90
9383;DHT22;4731;49.708;10.816;2023-04-15T07:28:14;8.50;99.90
9383;DHT22;4731;49.708;10.816;2023-04-15T07:30:41;8.50;99.90
9383;DHT22;4731;49.708;10.816;2023-04-15T07:33:12;8.50;99.90
9383;DHT22;4731;49.708;10.816;2023-04-15T07:35:39;8.50;99.90
9383;DHT22;4731;49.708;10.816;2023-04-15T07:38:14;8.30;99.90
9383;DHT22;4731;49.708;10.816;2023-04-15T07:40:48;8.30;99.90
9383;DHT22;4731;49.708;10.816;2023-04-15T07:43:16;8.30;99.90
9383;DHT22;4731;49.708;10.816;2023-04-15T07:45:58;8.20;99.90
9383;DHT22;4731;49.708;10.816;2023-04-15T07:48:31;8.00;99.90
9383;DHT22;4731;49.708;10.816;2023-04-15T07:51:05;7.80;99.90
9383;DHT22;4731;49.708;10.816;2023-04-15T07:53:35;7.70;99.90
9383;DHT22;4731;49.708;10.816;2023-04-15T07:56:03;7.60;99.90
9383;DHT22;4731;49.708;10.816;2023-04-15T07:58:41;7.50;99.90
9383;DHT22;4731;49.708;10.816;2023-04-15T08:01:18;7.50;99.90
9383;DHT22;4731;49.708;10.816;2023-04-15T08:03:54;7.50;99.90
9383;DHT22;4731;49.708;10.816;2023-04-15T08:06:22;7.50;99.90
9383;DHT22;4731;49.708;10.816;2023-04-15T08:08:56;6.90;99.90
9383;DHT22;4731;49.708;10.816;2023-04-15T08:11:26;7.70;99.90
9383;DHT22;4731;49.708;10.816;2023-04-15T08:13:59;7.80;99.90
9383;DHT22;4731;49.708;10.816;2023-04-15T08:19:25;7.90;99.90
9383;DHT22;4731;49.708;10.816;2023-04-15T08:21:52;8.00;99.90
9383;DHT22;4731;49.708;10.816;2023-04-15T08:24:22;8.10;99.90
9383;DHT22;4731;49.708;10.816;2023-04-15T08:26:51;8.10;99.90
9383;DHT22;4731;49.708;10.816;2023-04-15T08:29:22;8.10;99.90
9383;DHT22;4731;49.708;10.816;2023-04-15T08:31:56;8.00;99.90
9383;DHT22;4731;49.708;10.816;2023-04-15T08:34:36;8.10;99.90
9383;DHT22;4731;49.708;10.816;2023-04-15T08:37:03;8.10;99.90
9383;DHT22;4731;49.708;10.816;2023-04-15T08:39:33;8.10;99.90
9383;DHT22;4731;49.708;10.816;2023-04-15T08:42:02;8.20;99.90
9383;DHT22;4731;49.708;10.816;2023-04-15T08:44:40;8.20;99.90
9383;DHT22;4731;49.708;10.816;2023-04-15T08:47:20;8.10;99.90
9383;DHT22;4731;49.708;10.816;2023-04-15T08:49:57;8.10;99.90
9383;DHT22;4731;49.708;10.816;2023-04-15T08:52:30;8.10;99.90
9383;DHT22;4731;49.708;10.816;2023-04-15T08:55:01;7.80;99.90
9383;DHT22;4731;49.708;10.816;2023-04-15T08:57:32;7.70;99.90
9383;DHT22;4731;49.708;10.816;2023-04-15T09:00:02;7.60;99.90
9383;DHT22;4731;49.708;10.816;2023-04-15T09:02:40;7.60;99.90
9383;DHT22;4731;49.708;10.816;2023-04-15T09:05:13;7.70;99.90
9383;DHT22;4731;49.708;10.816;2023-04-15T09:07:50;7.80;99.90
9383;DHT22;4731;49.708;10.816;2023-04-15T09:10:19;7.90;99.90
9383;DHT22;4731;49.708;10.816;2023-04-15T09:12:47;7.80;99.90
9383;DHT22;4731;49.708;10.816;2023-04-15T09:15:24;7.80;99.90
9383;DHT22;4731;49.708;10.816;2023-04-15T09:17:54;7.70;99.90
9383;DHT22;4731;49.708;10.816;2023-04-15T09:20:22;7.50;99.90
9383;DHT22;4731;49.708;10.816;2023-04-15T09:22:51;7.50;99.90
9383;DHT22;4731;49.708;10.816;2023-04-15T09:25:31;7.50;99.90
9383;DHT22;4731;49.708;10.816;2023-04-15T09:28:01;7.70;99.90
9383;DHT22;4731;49.708;10.816;2023-04-15T09:30:48;7.80;99.90
9383;DHT22;4731;49.708;10.816;2023-04-15T09:33:25;7.80;99.90
9383;DHT22;4731;49.708;10.816;2023-04-15T09:36:02;7.90;99.90
9383;DHT22;4731;49.708;10.816;2023-04-15T09:38:30;8.00;99.90
9383;DHT22;4731;49.708;10.816;2023-04-15T09:41:16;7.90;99.90
9383;DHT22;4731;49.708;10.816;2023-04-15T09:43:45;7.80;99.90
9383;DHT22;4731;49.708;10.816;2023-04-15T09:46:12;7.90;99.90
9383;DHT22;4731;49.708;10.816;2023-04-15T09:49:06;7.90;99.90
9383;DHT22;4731;49.708;10.816;2023-04-15T09:51:34;7.80;99.90
9383;DHT22;4731;49.708;10.816;2023-04-15T09:54:01;8.00;99.90
9383;DHT22;4731;49.708;10.816;2023-04-15T09:56:34;8.20;99.90
9383;DHT22;4731;49.708;10.816;2023-04-15T09:59:02;8.30;99.90
9383;DHT22;4731;49.708;10.816;2023-04-15T10:01:29;8.60;99.90
9383;DHT22;4731;49.708;10.816;2023-04-15T10:03:56;9.80;99.90
9383;DHT22;4731;49.708;10.816;2023-04-15T10:06:25;8.70;99.90
9383;DHT22;4731;49.708;10.816;2023-04-15T10:08:53;8.70;99.90
9383;DHT22;4731;49.708;10.816;2023-04-15T10:11:21;8.80;99.90
9383;DHT22;4731;49.708;10.816;2023-04-15T10:13:50;9.00;99.90
9383;DHT22;4731;49.708;10.816;2023-04-15T10:16:19;9.10;99.90
9383;DHT22;4731;49.708;10.816;2023-04-15T10:18:52;9.30;99.90
9383;DHT22;4731;49.708;10.816;2023-04-15T10:21:20;9.40;99.90
9383;DHT22;4731;49.708;10.816;2023-04-15T10:23:48;9.40;99.90
9383;DHT22;4731;49.708;10.816;2023-04-15T10:26:16;9.30;99.90
9383;DHT22;4731;49.708;10.816;2023-04-15T10:28:43;9.30;99.90
9383;DHT22;4731;49.708;10.816;2023-04-15T10:31:13;9.20;99.90
9383;DHT22;4731;49.708;10.816;2023-04-15T10:33:41;9.10;99.90
9383;DHT22;4731;49.708;10.816;2023-04-15T10:36:08;8.90;99.90
9383;DHT22;4731;49.708;10.816;2023-04-15T10:38:37;9.10;99.90
9383;DHT22;4731;49.708;10.816;2023-04-15T10:41:14;9.00;99.90
9383;DHT22;4731;49.708;10.816;2023-04-15T10:43:48;9.80;99.90
9383;DHT22;4731;49.708;10.816;2023-04-15T10:46:36;9.20;99.90
9383;DHT22;4731;49.708;10.816;2023-04-15T10:49:07;9.20;99.90
9383;DHT22;4731;49.708;10.816;2023-04-15T10:51:37;10.90;99.90
9383;DHT22;4731;49.708;10.816;2023-04-15T10:54:08;9.40;99.90
9383;DHT22;4731;49.708;10.816;2023-04-15T10:56:35;9.40;99.90
9383;DHT22;4731;49.708;10.816;2023-04-15T10:59:04;9.60;99.90
9383;DHT22;4731;49.708;10.816;2023-04-15T11:01:52;10.30;99.90
9383;DHT22;4731;49.708;10.816;2023-04-15T11:04:52;9.90;99.90
9383;DHT22;4731;49.708;10.816;2023-04-15T11:07:39;10.00;99.90
9383;DHT22;4731;49.708;10.816;2023-04-15T11:13:27;10.40;99.90
9383;DHT22;4731;49.708;10.816;2023-04-15T11:15:57;10.40;99.90
9383;DHT22;4731;49.708;10.816;2023-04-15T11:18:29;10.40;99.90
9383;DHT22;4731;49.708;10.816;2023-04-15T11:20:58;10.60;99.90
9383;DHT22;4731;49.708;10.816;2023-04-15T11:23:34;10.10;99.90
9383;DHT22;4731;49.708;10.816;2023-04-15T11:26:03;9.90;99.90
9383;DHT22;4731;49.708;10.816;2023-04-15T11:28:33;9.80;99.90
9383;DHT22;4731;49.708;10.816;2023-04-15T11:31:05;9.80;99.90
9383;DHT22;4731;49.708;10.816;2023-04-15T11:33:34;9.70;99.90
9383;DHT22;4731;49.708;10.816;2023-04-15T11:36:01;9.60;99.90
9383;DHT22;4731;49.708;10.816;2023-04-15T11:38:28;9.60;99.90
9383;DHT22;4731;49.708;10.816;2023-04-15T11:40:56;9.60;99.90
9383;DHT22;4731;49.708;10.816;2023-04-15T11:43:23;9.70;99.90
9383;DHT22;4731;49.708;10.816;2023-04-15T11:45:52;9.70;99.90
9383;DHT22;4731;49.708;10.816;2023-04-15T11:48:22;9.70;99.90
9383;DHT22;4731;49.708;10.816;2023-04-15T11:50:56;9.60;99.90
9383;DHT22;4731;49.708;10.816;2023-04-15T11:53:23;9.70;99.90
9383;DHT22;4731;49.708;10.816;2023-04-15T11:55:52;9.70;99.90
9383;DHT22;4731;49.708;10.816;2023-04-15T11:58:21;11.40;99.90
9383;DHT22;4731;49.708;10.816;2023-04-15T12:00:50;9.70;99.90
9383;DHT22;4731;49.708;10.816;2023-04-15T12:03:24;10.40;99.90
9383;DHT22;4731;49.708;10.816;2023-04-15T12:06:10;9.70;99.90
9383;DHT22;4731;49.708;10.816;2023-04-15T12:08:59;10.00;99.90
9383;DHT22;4731;49.708;10.816;2023-04-15T12:11:34;10.00;99.90
9383;DHT22;4731;49.708;10.816;2023-04-15T12:14:06;10.10;99.90
9383;DHT22;4731;49.708;10.816;2023-04-15T12:16:34;10.20;99.90
9383;DHT22;4731;49.708;10.816;2023-04-15T12:19:05;10.10;99.90
9383;DHT22;4731;49.708;10.816;2023-04-15T12:21:37;11.00;99.90
9383;DHT22;4731;49.708;10.816;2023-04-15T12:24:06;10.40;99.90
9383;DHT22;4731;49.708;10.816;2023-04-15T12:26:36;10.40;99.90
9383;DHT22;4731;49.708;10.816;2023-04-15T12:29:04;12.00;99.90
9383;DHT22;4731;49.708;10.816;2023-04-15T12:31:33;10.10;99.90
9383;DHT22;4731;49.708;10.816;2023-04-15T12:34:00;10.00;99.90
9383;DHT22;4731;49.708;10.816;2023-04-15T12:36:27;9.90;99.90
9383;DHT22;4731;49.708;10.816;2023-04-15T12:38:57;9.90;99.90
9383;DHT22;4731;49.708;10.816;2023-04-15T12:41:24;10.00;99.90
9383;DHT22;4731;49.708;10.816;2023-04-15T12:43:51;10.00;99.90
9383;DHT22;4731;49.708;10.816;2023-04-15T12:46:18;10.00;99.90
9383;DHT22;4731;49.708;10.816;2023-04-15T12:48:46;9.90;99.90
9383;DHT22;4731;49.708;10.816;2023-04-15T12:51:13;10.10;99.90
9383;DHT22;4731;49.708;10.816;2023-04-15T12:53:40;10.20;99.90
9383;DHT22;4731;49.708;10.816;2023-04-15T12:56:08;11.50;99.90
9383;DHT22;4731;49.708;10.816;2023-04-15T12:58:35;10.30;99.90
9383;DHT22;4731;49.708;10.816;2023-04-15T13:01:02;10.10;99.90
9383;DHT22;4731;49.708;10.816;2023-04-15T13:03:29;10.10;99.90
9383;DHT22;4731;49.708;10.816;2023-04-15T13:05:56;10.40;99.90
9383;DHT22;4731;49.708;10.816;2023-04-15T13:08:23;10.10;99.90
9383;DHT22;4731;49.708;10.816;2023-04-15T13:10:50;10.10;99.90
9383;DHT22;4731;49.708;10.816;2023-04-15T13:13:18;10.10;99.90
9383;DHT22;4731;49.708;10.816;2023-04-15T13:15:45;10.30;99.90
9383;DHT22;4731;49.708;10.816;2023-04-15T13:18:11;10.30;99.90
9383;DHT22;4731;49.708;10.816;2023-04-15T13:20:38;11.70;99.90
9383;DHT22;4731;49.708;10.816;2023-04-15T13:23:05;10.40;99.90
9383;DHT22;4731;49.708;10.816;2023-04-15T13:25:32;10.50;99.90
9383;DHT22;4731;49.708;10.816;2023-04-15T13:27:59;10.60;99.90
9383;DHT22;4731;49.708;10.816;2023-04-15T13:30:27;12.00;99.90
9383;DHT22;4731;49.708;10.816;2023-04-15T13:32:55;10.30;99.90
9383;DHT22;4731;49.708;10.816;2023-04-15T13:35:22;12.60;99.90
9383;DHT22;4731;49.708;10.816;2023-04-15T13:37:55;10.10;99.90
9383;DHT22;4731;49.708;10.816;2023-04-15T13:40:25;10.90;99.90
9383;DHT22;4731;49.708;10.816;2023-04-15T13:42:53;9.90;99.90
9383;DHT22;4731;49.708;10.816;2023-04-15T13:45:21;9.80;99.90
9383;DHT22;4731;49.708;10.816;2023-04-15T13:47:49;9.80;99.90
9383;DHT22;4731;49.708;10.816;2023-04-15T13:50:16;9.80;99.90
9383;DHT22;4731;49.708;10.816;2023-04-15T13:52:43;9.90;99.90
9383;DHT22;4731;49.708;10.816;2023-04-15T13:55:09;9.70;99.90
9383;DHT22;4731;49.708;10.816;2023-04-15T13:57:36;11.20;99.90
9383;DHT22;4731;49.708;10.816;2023-04-15T14:00:04;9.60;99.90
9383;DHT22;4731;49.708;10.816;2023-04-15T14:02:32;9.50;99.90
9383;DHT22;4731;49.708;10.816;2023-04-15T14:05:00;9.50;99.90
9383;DHT22;4731;49.708;10.816;2023-04-15T14:07:28;9.70;99.90
9383;DHT22;4731;49.708;10.816;2023-04-15T14:09:55;10.60;99.90
9383;DHT22;4731;49.708;10.816;2023-04-15T14:12:22;9.30;99.90
9383;DHT22;4731;49.708;10.816;2023-04-15T14:14:48;9.30;99.90
9383;DHT22;4731;49.708;10.816;2023-04-15T14:17:15;9.20;99.90
9383;DHT22;4731;49.708;10.816;2023-04-15T14:19:42;9.10;99.90
9383;DHT22;4731;49.708;10.816;2023-04-15T14:22:11;9.10;99.90
9383;DHT22;4731;49.708;10.816;2023-04-15T14:24:38;9.50;99.90
9383;DHT22;4731;49.708;10.816;2023-04-15T14:27:05;10.40;99.90
9383;DHT22;4731;49.708;10.816;2023-04-15T14:29:33;9.70;99.90
9383;DHT22;4731;49.708;10.816;2023-04-15T14:32:00;8.90;99.90
9383;DHT22;4731;49.708;10.816;2023-04-15T14:34:26;8.80;99.90
9383;DHT22;4731;49.708;10.816;2023-04-15T14:36:54;8.80;99.90
9383;DHT22;4731;49.708;10.816;2023-04-15T14:39:24;8.70;99.90
9383;DHT22;4731;49.708;10.816;2023-04-15T14:41:51;8.70;99.90
9383;DHT22;4731;49.708;10.816;2023-04-15T14:44:18;8.70;99.90
9383;DHT22;4731;49.708;10.816;2023-04-15T14:46:45;9.20;99.90
9383;DHT22;4731;49.708;10.816;2023-04-15T14:49:12;8.70;99.90
9383;DHT22;4731;49.708;10.816;2023-04-15T14:51:39;8.80;99.90
9383;DHT22;4731;49.708;10.816;2023-04-15T14:54:06;8.80;99.90
9383;DHT22;4731;49.708;10.816;2023-04-15T14:56:34;10.80;99.90
9383;DHT22;4731;49.708;10.816;2023-04-15T14:59:01;8.80;99.90
9383;DHT22;4731;49.708;10.816;2023-04-15T15:01:28;8.80;99.90
9383;DHT22;4731;49.708;10.816;2023-04-15T15:03:55;8.80;99.90
9383;DHT22;4731;49.708;10.816;2023-04-15T15:06:22;8.80;99.90
9383;DHT22;4731;49.708;10.816;2023-04-15T15:08:49;8.70;99.90
9383;DHT22;4731;49.708;10.816;2023-04-15T15:11:16;8.80;99.90
9383;DHT22;4731;49.708;10.816;2023-04-15T15:13:44;8.70;99.90
9383;DHT22;4731;49.708;10.816;2023-04-15T15:16:11;8.70;99.90
9383;DHT22;4731;49.708;10.816;2023-04-15T15:18:37;8.60;99.90
9383;DHT22;4731;49.708;10.816;2023-04-15T15:21:04;8.60;99.90
9383;DHT22;4731;49.708;10.816;2023-04-15T15:23:33;8.70;99.90
9383;DHT22;4731;49.708;10.816;2023-04-15T15:26:00;8.70;99.90
9383;DHT22;4731;49.708;10.816;2023-04-15T15:28:27;8.70;99.90
9383;DHT22;4731;49.708;10.816;2023-04-15T15:30:55;8.70;99.90
9383;DHT22;4731;49.708;10.816;2023-04-15T15:33:22;8.80;99.90
9383;DHT22;4731;49.708;10.816;2023-04-15T15:35:49;8.80;99.90
9383;DHT22;4731;49.708;10.816;2023-04-15T15:38:16;8.80;99.90
9383;DHT22;4731;49.708;10.816;2023-04-15T15:40:43;8.90;99.90
9383;DHT22;4731;49.708;10.816;2023-04-15T15:43:10;8.90;99.90
9383;DHT22;4731;49.708;10.816;2023-04-15T15:45:36;9.00;99.90
9383;DHT22;4731;49.708;10.816;2023-04-15T15:48:06;9.20;99.90
9383;DHT22;4731;49.708;10.816;2023-04-15T15:50:33;9.00;99.90
9383;DHT22;4731;49.708;10.816;2023-04-15T15:52:59;9.00;99.90
9383;DHT22;4731;49.708;10.816;2023-04-15T15:55:26;8.90;99.90
9383;DHT22;4731;49.708;10.816;2023-04-15T15:57:53;10.90;99.90
9383;DHT22;4731;49.708;10.816;2023-04-15T16:00:20;8.70;99.90
9383;DHT22;4731;49.708;10.816;2023-04-15T16:02:47;8.90;99.90
9383;DHT22;4731;49.708;10.816;2023-04-15T16:05:15;8.80;99.90
9383;DHT22;4731;49.708;10.816;2023-04-15T16:07:42;8.80;99.90
9383;DHT22;4731;49.708;10.816;2023-04-15T16:10:09;8.90;99.90
9383;DHT22;4731;49.708;10.816;2023-04-15T16:12:38;8.80;99.90
9383;DHT22;4731;49.708;10.816;2023-04-15T16:15:06;8.80;99.90
9383;DHT22;4731;49.708;10.816;2023-04-15T16:17:33;8.80;99.90
9383;DHT22;4731;49.708;10.816;2023-04-15T16:20:00;8.80;99.90
9383;DHT22;4731;49.708;10.816;2023-04-15T16:22:31;8.80;99.90